createdAt,value
2022-09-14T00:01:40.234Z,1.60
2022-09-14T00:04:11.339Z,1.80
2022-09-14T00:06:38.057Z,2.40
2022-09-14T00:09:06.877Z,2.00
2022-09-14T00:11:33.905Z,1.67
2022-09-14T00:14:01.475Z,2.42
2022-09-14T00:16:29.121Z,2.00
2022-09-14T00:18:57.138Z,2.03
2022-09-14T00:21:23.832Z,1.90
2022-09-14T00:23:50.239Z,2.17
2022-09-14T00:26:17.756Z,1.98
2022-09-14T00:28:45.197Z,2.20
2022-09-14T00:31:11.567Z,2.38
2022-09-14T00:33:38.308Z,2.40
2022-09-14T00:36:07.444Z,2.10
2022-09-14T00:38:33.698Z,2.35
2022-09-14T00:41:00.411Z,2.30
2022-09-14T00:43:26.724Z,2.20
2022-09-14T00:45:53.186Z,2.13
2022-09-14T00:48:20.265Z,2.53
2022-09-14T00:50:46.618Z,2.35
2022-09-14T00:53:12.820Z,2.17
2022-09-14T00:55:39.080Z,2.60
2022-09-14T00:58:05.292Z,2.60
2022-09-14T01:00:31.649Z,2.30
2022-09-14T01:02:57.924Z,2.63
2022-09-14T01:05:31.621Z,2.30
2022-09-14T01:08:07.156Z,2.50
2022-09-14T01:10:51.964Z,2.78
2022-09-14T01:13:40.000Z,2.30
2022-09-14T01:16:07.317Z,2.15
2022-09-14T01:18:38.301Z,2.58
2022-09-14T01:21:07.270Z,2.58
2022-09-14T01:23:49.192Z,2.33
2022-09-14T01:26:39.143Z,2.40
2022-09-14T01:29:08.105Z,2.50
2022-09-14T01:31:36.761Z,2.38
2022-09-14T01:34:12.622Z,2.30
2022-09-14T01:36:40.240Z,2.55
2022-09-14T01:39:06.807Z,2.55
2022-09-14T01:41:34.119Z,2.78
2022-09-14T01:44:04.217Z,2.53
2022-09-14T01:46:34.688Z,3.05
2022-09-14T01:49:07.084Z,2.83
2022-09-14T01:51:36.882Z,3.10
2022-09-14T01:54:26.126Z,2.93
2022-09-14T01:57:04.459Z,2.72
2022-09-14T01:59:33.674Z,2.38
2022-09-14T02:02:03.098Z,2.67
2022-09-14T02:04:32.093Z,2.17
2022-09-14T02:06:58.361Z,2.45
2022-09-14T02:09:26.702Z,2.80
2022-09-14T02:11:54.448Z,2.67
2022-09-14T02:14:21.426Z,2.40
2022-09-14T02:16:47.708Z,2.83
2022-09-14T02:19:14.380Z,2.80
2022-09-14T02:21:40.943Z,2.67
2022-09-14T02:24:07.806Z,2.97
2022-09-14T02:26:35.080Z,2.72
2022-09-14T02:29:01.362Z,3.10
2022-09-14T02:31:30.428Z,3.30
2022-09-14T02:34:26.667Z,3.08
2022-09-14T02:37:02.069Z,3.30
2022-09-14T02:39:35.357Z,3.20
2022-09-14T02:42:08.732Z,3.13
2022-09-14T02:44:42.408Z,3.20
2022-09-14T02:47:27.295Z,3.47
2022-09-14T02:49:59.987Z,3.60
2022-09-14T02:52:44.746Z,3.40
2022-09-14T02:55:12.871Z,3.90
2022-09-14T02:57:57.639Z,3.83
2022-09-14T03:00:24.008Z,3.63
2022-09-14T03:02:50.285Z,3.47
2022-09-14T03:05:16.498Z,3.17
2022-09-14T03:07:42.703Z,3.72
2022-09-14T03:10:09.035Z,3.40
2022-09-14T03:12:35.240Z,3.20
2022-09-14T03:15:01.823Z,2.90
2022-09-14T03:17:28.046Z,2.80
2022-09-14T03:19:54.579Z,3.13
2022-09-14T03:22:20.800Z,3.53
2022-09-14T03:24:47.008Z,3.33
2022-09-14T03:27:13.249Z,2.90
2022-09-14T03:29:39.458Z,2.97
2022-09-14T03:32:05.783Z,3.60
2022-09-14T03:34:32.103Z,3.60
2022-09-14T03:36:58.311Z,3.03
2022-09-14T03:39:24.538Z,3.03
2022-09-14T03:41:51.018Z,3.45
2022-09-14T03:44:17.292Z,3.17
2022-09-14T03:46:43.701Z,3.42
2022-09-14T03:49:10.205Z,3.70
2022-09-14T03:51:36.508Z,3.83
2022-09-14T03:54:02.802Z,4.18
2022-09-14T03:56:29.028Z,3.80
2022-09-14T03:58:55.259Z,4.57
2022-09-14T04:01:22.224Z,4.50
2022-09-14T04:03:48.548Z,3.75
2022-09-14T04:06:15.995Z,3.00
2022-09-14T04:08:42.936Z,2.80
2022-09-14T04:11:10.615Z,2.78
2022-09-14T04:13:37.556Z,2.85
2022-09-14T04:16:04.067Z,2.67
2022-09-14T04:18:30.820Z,2.65
2022-09-14T04:21:05.784Z,2.90
2022-09-14T04:23:36.559Z,2.70
2022-09-14T04:26:17.830Z,3.35
2022-09-14T04:28:44.103Z,3.10
2022-09-14T04:31:11.074Z,2.83
2022-09-14T04:33:37.984Z,2.78
2022-09-14T04:36:08.548Z,2.80
2022-09-14T04:38:35.364Z,3.80
2022-09-14T04:41:04.912Z,4.22
2022-09-14T04:43:31.578Z,4.88
2022-09-14T04:46:05.347Z,3.15
2022-09-14T04:48:33.623Z,2.95
2022-09-14T04:51:03.080Z,2.80
2022-09-14T04:53:29.321Z,3.13
2022-09-14T04:55:59.151Z,2.70
2022-09-14T04:58:25.344Z,3.50
2022-09-14T05:00:51.562Z,3.30
2022-09-14T05:03:17.833Z,3.60
2022-09-14T05:05:44.842Z,3.25
2022-09-14T05:08:11.204Z,3.35
2022-09-14T05:10:37.411Z,2.85
2022-09-14T05:13:03.626Z,2.90
2022-09-14T05:15:29.924Z,3.13
2022-09-14T05:17:56.149Z,2.72
2022-09-14T05:20:22.400Z,2.97
2022-09-14T05:22:51.557Z,3.20
2022-09-14T05:25:17.843Z,3.20
2022-09-14T05:27:44.108Z,3.35
2022-09-14T05:30:10.534Z,2.90
2022-09-14T05:32:36.753Z,3.00
2022-09-14T05:35:03.004Z,3.33
2022-09-14T05:37:29.222Z,3.30
2022-09-14T05:39:55.451Z,3.25
2022-09-14T05:42:21.679Z,3.45
2022-09-14T05:44:47.970Z,4.05
2022-09-14T05:47:14.170Z,3.38
2022-09-14T05:49:40.390Z,3.60
2022-09-14T05:52:06.645Z,3.28
2022-09-14T05:54:32.855Z,3.10
2022-09-14T05:56:59.071Z,3.38
2022-09-14T05:59:25.294Z,3.65
2022-09-14T06:01:51.566Z,3.75
2022-09-14T06:04:17.893Z,2.42
2022-09-14T06:06:52.247Z,2.70
2022-09-14T06:09:22.364Z,3.33
2022-09-14T06:11:48.698Z,3.65
2022-09-14T06:14:19.473Z,3.05
2022-09-14T06:16:45.729Z,3.58
2022-09-14T06:19:14.177Z,3.20
2022-09-14T06:21:40.846Z,3.85
2022-09-14T06:24:07.034Z,3.80
2022-09-14T06:26:33.294Z,3.30
2022-09-14T06:28:59.521Z,3.92
2022-09-14T06:31:25.799Z,3.47
2022-09-14T06:33:52.568Z,2.95
2022-09-14T06:36:19.967Z,3.20
2022-09-14T06:38:47.415Z,3.90
2022-09-14T06:41:14.704Z,3.55
2022-09-14T06:43:41.857Z,3.20
2022-09-14T06:46:13.142Z,3.20
2022-09-14T06:48:41.097Z,3.40
2022-09-14T06:51:11.902Z,3.33
2022-09-14T06:53:38.136Z,3.40
2022-09-14T06:56:04.979Z,3.30
2022-09-14T06:58:32.210Z,3.22
2022-09-14T07:01:02.008Z,3.22
2022-09-14T07:03:28.208Z,3.50
2022-09-14T07:06:00.623Z,3.22
2022-09-14T07:08:28.268Z,3.17
2022-09-14T07:10:58.670Z,3.03
2022-09-14T07:13:24.921Z,3.17
2022-09-14T07:15:51.711Z,3.78
2022-09-14T07:18:18.214Z,3.33
2022-09-14T07:20:44.478Z,3.65
2022-09-14T07:23:12.966Z,3.50
2022-09-14T07:25:39.188Z,3.47
2022-09-14T07:28:05.392Z,2.75
2022-09-14T07:30:34.339Z,3.65
2022-09-14T07:33:00.620Z,3.60
2022-09-14T07:35:26.836Z,2.17
2022-09-14T07:37:54.156Z,3.05
2022-09-14T07:40:23.460Z,3.20
2022-09-14T07:42:53.289Z,2.92
2022-09-14T07:45:22.011Z,3.20
2022-09-14T07:47:48.245Z,2.92
2022-09-14T07:50:14.473Z,2.90
2022-09-14T07:52:40.696Z,2.63
2022-09-14T07:55:07.262Z,3.42
2022-09-14T07:57:54.603Z,3.65
2022-09-14T08:00:21.933Z,4.53
2022-09-14T08:02:52.185Z,3.95
2022-09-14T08:05:19.632Z,3.30
2022-09-14T08:07:46.066Z,3.35
2022-09-14T08:10:12.344Z,3.42
2022-09-14T08:12:38.623Z,3.30
2022-09-14T08:15:05.149Z,3.30
2022-09-14T08:17:31.357Z,3.40
2022-09-14T08:19:57.568Z,3.10
2022-09-14T08:22:23.866Z,3.05
2022-09-14T08:24:50.099Z,3.38
2022-09-14T08:27:17.360Z,3.33
2022-09-14T08:29:43.668Z,3.40
2022-09-14T08:32:11.520Z,3.15
2022-09-14T08:34:37.810Z,3.03
2022-09-14T08:37:04.078Z,3.10
2022-09-14T08:39:30.288Z,3.60
2022-09-14T08:41:58.761Z,3.58
2022-09-14T08:44:35.781Z,3.60
2022-09-14T08:47:04.045Z,3.28
2022-09-14T08:49:36.255Z,2.90
2022-09-14T08:52:02.720Z,3.17
2022-09-14T08:54:29.497Z,2.70
2022-09-14T08:57:01.851Z,2.65
2022-09-14T08:59:37.132Z,2.63
2022-09-14T09:02:20.196Z,2.45
2022-09-14T09:04:49.964Z,2.13
2022-09-14T09:07:25.479Z,2.10
2022-09-14T09:09:53.268Z,2.45
2022-09-14T09:12:24.142Z,1.70
2022-09-14T09:14:52.398Z,2.25
2022-09-14T09:17:22.103Z,2.00
2022-09-14T09:19:53.876Z,2.90
2022-09-14T09:22:21.545Z,2.33
2022-09-14T09:24:51.036Z,2.30
2022-09-14T09:27:19.814Z,2.40
2022-09-14T09:29:46.185Z,2.45
2022-09-14T09:32:18.002Z,2.60
2022-09-14T09:34:44.296Z,2.60
2022-09-14T09:37:15.420Z,2.00
2022-09-14T09:39:42.532Z,2.50
2022-09-14T09:42:28.169Z,2.55
2022-09-14T09:45:02.440Z,2.55
2022-09-14T09:47:40.765Z,2.17
2022-09-14T09:50:13.133Z,1.90
2022-09-14T09:52:48.735Z,1.95
2022-09-14T09:55:18.673Z,2.53
2022-09-14T09:57:44.871Z,2.60
2022-09-14T10:00:27.547Z,2.38
2022-09-14T10:02:54.464Z,2.10
2022-09-14T10:05:22.677Z,1.75
2022-09-14T10:07:51.937Z,1.90
2022-09-14T10:10:21.290Z,1.63
2022-09-14T10:12:48.676Z,1.67
2022-09-14T10:15:47.104Z,1.80
2022-09-14T10:18:13.473Z,1.48
2022-09-14T10:20:41.648Z,1.67
2022-09-14T10:23:20.135Z,1.95
2022-09-14T10:25:46.395Z,1.85
2022-09-14T10:28:32.905Z,1.77
2022-09-14T10:31:01.266Z,2.00
2022-09-14T10:33:28.463Z,2.10
2022-09-14T10:36:13.582Z,1.80
2022-09-14T10:39:12.793Z,2.20
2022-09-14T10:41:39.992Z,2.00
2022-09-14T10:44:19.429Z,1.77
2022-09-14T10:46:52.685Z,2.20
2022-09-14T10:49:27.907Z,2.80
2022-09-14T10:51:57.167Z,2.55
2022-09-14T10:54:27.000Z,1.90
2022-09-14T10:57:03.436Z,1.90
2022-09-14T10:59:56.216Z,2.00
2022-09-14T11:02:41.118Z,1.90
2022-09-14T11:05:27.585Z,1.83
2022-09-14T11:08:06.068Z,2.40
2022-09-14T11:10:51.123Z,2.30
2022-09-14T11:13:26.368Z,2.10
2022-09-14T11:16:10.893Z,2.20
2022-09-14T11:18:57.875Z,2.10
2022-09-14T11:21:30.459Z,2.25
2022-09-14T11:24:04.721Z,2.00
2022-09-14T11:26:39.179Z,1.92
2022-09-14T11:29:19.223Z,1.85
2022-09-14T11:32:16.842Z,2.30
2022-09-14T11:34:47.499Z,2.10
2022-09-14T11:37:17.945Z,2.03
2022-09-14T11:39:47.680Z,2.35
2022-09-14T11:42:26.251Z,2.53
2022-09-14T11:44:59.715Z,2.33
2022-09-14T11:47:26.304Z,2.75
2022-09-14T11:49:58.564Z,2.30
2022-09-14T11:52:26.228Z,2.33
2022-09-14T11:54:52.787Z,2.30
2022-09-14T11:57:23.627Z,2.05
2022-09-14T11:59:51.840Z,2.22
2022-09-14T12:02:30.401Z,2.40
2022-09-14T12:05:09.184Z,1.98
2022-09-14T12:07:44.424Z,2.58
2022-09-14T12:10:13.445Z,2.30
2022-09-14T12:12:43.842Z,2.33
2022-09-14T12:15:22.217Z,2.60
2022-09-14T12:17:51.153Z,2.30
2022-09-14T12:20:20.589Z,2.70
2022-09-14T12:22:50.277Z,2.47
2022-09-14T12:25:18.011Z,2.55
2022-09-14T12:27:45.175Z,2.42
2022-09-14T12:30:50.225Z,2.47
2022-09-14T12:33:36.790Z,2.60
2022-09-14T12:36:03.080Z,2.65
2022-09-14T12:38:29.268Z,2.17
2022-09-14T12:40:55.963Z,2.15
2022-09-14T12:43:34.704Z,2.17
2022-09-14T12:46:02.505Z,2.53
2022-09-14T12:48:47.240Z,2.20
2022-09-14T12:51:19.773Z,2.40
2022-09-14T12:53:46.785Z,2.22
2022-09-14T12:56:16.696Z,2.75
2022-09-14T12:58:47.649Z,4.22
2022-09-14T13:01:21.031Z,2.58
2022-09-14T13:03:51.846Z,2.38
2022-09-14T13:06:18.299Z,4.30
2022-09-14T13:08:48.884Z,5.28
2022-09-14T13:13:42.271Z,2.10
2022-09-14T13:16:08.785Z,1.83
2022-09-14T13:18:36.321Z,1.85
2022-09-14T13:21:04.848Z,1.80
2022-09-14T13:23:35.975Z,1.70
2022-09-14T13:26:08.837Z,2.05
2022-09-14T13:28:35.340Z,1.70
2022-09-14T13:31:02.243Z,1.60
2022-09-14T13:33:29.612Z,1.95
2022-09-14T13:35:57.838Z,2.30
2022-09-14T13:38:24.884Z,2.88
2022-09-14T13:40:53.037Z,2.20
2022-09-14T13:43:20.212Z,1.83
2022-09-14T13:45:47.247Z,2.20
2022-09-14T13:48:14.092Z,1.70
2022-09-14T13:50:41.867Z,2.00
2022-09-14T13:53:28.031Z,1.20
2022-09-14T13:55:54.273Z,1.27
2022-09-14T13:58:23.889Z,1.48
2022-09-14T14:00:51.806Z,1.53
2022-09-14T14:03:25.495Z,1.40
2022-09-14T14:05:51.715Z,1.65
2022-09-14T14:08:26.131Z,1.40
2022-09-14T14:10:53.915Z,1.50
2022-09-14T14:13:31.291Z,1.60
2022-09-14T14:16:14.380Z,1.50
2022-09-14T14:18:41.995Z,1.38
2022-09-14T14:21:14.023Z,1.10
2022-09-14T14:24:02.592Z,0.95
2022-09-14T14:26:27.276Z,1.55
2022-09-14T14:28:54.369Z,2.05
2022-09-14T14:31:21.965Z,1.20
2022-09-14T14:33:49.235Z,0.80
2022-09-14T14:36:16.422Z,1.10
2022-09-14T14:38:44.111Z,0.82
2022-09-14T14:41:13.205Z,1.08
2022-09-14T14:43:39.624Z,0.90
2022-09-14T14:46:06.644Z,1.05
2022-09-14T14:48:32.946Z,1.33
2022-09-14T14:50:59.195Z,0.90
2022-09-14T14:53:25.668Z,0.98
2022-09-14T14:55:52.141Z,1.30
2022-09-14T14:58:19.647Z,1.02
2022-09-14T15:00:47.407Z,1.20
2022-09-14T15:03:15.340Z,1.23
2022-09-14T15:05:42.656Z,1.40
2022-09-14T15:08:12.514Z,0.80
2022-09-14T15:10:38.995Z,1.08
2022-09-14T15:13:06.260Z,1.20
2022-09-14T15:15:32.713Z,0.98
2022-09-14T15:17:59.953Z,1.17
2022-09-14T15:20:26.550Z,0.88
2022-09-14T15:22:52.966Z,0.82
2022-09-14T15:25:20.244Z,1.00
2022-09-14T15:27:46.848Z,1.40
2022-09-14T15:30:13.447Z,1.30
2022-09-14T15:32:40.015Z,1.10
2022-09-14T15:35:07.228Z,2.03
2022-09-14T15:37:33.454Z,1.10
2022-09-14T15:39:59.779Z,0.93
2022-09-14T15:42:27.062Z,1.00
2022-09-14T15:44:53.703Z,1.02
2022-09-14T15:47:19.935Z,0.85
2022-09-14T15:49:46.408Z,0.82
2022-09-14T15:52:12.719Z,0.88
2022-09-14T15:54:39.407Z,0.98
2022-09-14T15:57:06.963Z,0.80
2022-09-14T15:59:33.776Z,1.98
2022-09-14T16:02:00.117Z,1.30
2022-09-14T16:04:26.716Z,2.22
2022-09-14T16:06:52.940Z,3.25
2022-09-14T16:09:22.265Z,1.20
2022-09-14T16:11:48.531Z,2.22
2022-09-14T16:14:14.960Z,2.67
2022-09-14T16:16:41.600Z,2.28
2022-09-14T16:19:09.647Z,1.52
2022-09-14T16:21:36.544Z,1.88
2022-09-14T16:24:04.493Z,0.90
2022-09-14T16:26:32.701Z,1.10
2022-09-14T16:28:59.121Z,1.30
2022-09-14T16:31:27.181Z,1.40
2022-09-14T16:33:55.178Z,1.63
2022-09-14T16:36:22.477Z,1.10
2022-09-14T16:38:48.713Z,1.10
2022-09-14T16:41:14.944Z,1.15
2022-09-14T16:43:41.356Z,0.98
2022-09-14T16:46:14.870Z,0.90
2022-09-14T16:48:46.176Z,0.93
2022-09-14T16:51:13.306Z,1.10
2022-09-14T16:53:40.508Z,0.85
2022-09-14T16:56:10.943Z,0.95
2022-09-14T16:58:37.978Z,0.70
2022-09-14T17:01:09.149Z,0.68
2022-09-14T17:03:36.064Z,0.80
2022-09-14T17:06:07.112Z,0.70
2022-09-14T17:08:34.102Z,0.70
2022-09-14T17:11:00.953Z,1.17
2022-09-14T17:13:27.736Z,0.80
2022-09-14T17:16:00.391Z,0.50
2022-09-14T17:18:26.625Z,0.50
2022-09-14T17:21:03.153Z,0.57
2022-09-14T17:23:29.489Z,0.70
2022-09-14T17:25:56.027Z,0.60
2022-09-14T17:28:23.776Z,0.70
2022-09-14T17:30:53.804Z,0.90
2022-09-14T17:33:20.551Z,1.20
2022-09-14T17:35:48.100Z,0.90
2022-09-14T17:38:14.744Z,1.08
2022-09-14T17:40:41.202Z,0.60
2022-09-14T17:43:07.550Z,0.60
2022-09-14T17:45:33.820Z,0.80
2022-09-14T17:48:00.094Z,0.77
2022-09-14T17:50:26.804Z,0.60
2022-09-14T17:52:53.041Z,0.77
2022-09-14T17:55:19.374Z,0.88
2022-09-14T17:57:45.728Z,0.77
2022-09-14T18:00:12.418Z,0.95
2022-09-14T18:02:38.641Z,0.60
2022-09-14T18:05:04.999Z,0.80
2022-09-14T18:07:31.309Z,0.80
2022-09-14T18:09:57.730Z,1.40
2022-09-14T18:12:24.165Z,1.00
2022-09-14T18:14:50.762Z,1.48
2022-09-14T18:17:17.012Z,1.33
2022-09-14T18:19:43.223Z,0.90
2022-09-14T18:22:09.439Z,0.80
2022-09-14T18:24:35.755Z,1.38
2022-09-14T18:27:01.981Z,1.02
2022-09-14T18:29:29.770Z,1.02
2022-09-14T18:31:56.083Z,0.90
2022-09-14T18:34:22.548Z,1.10
2022-09-14T18:36:50.743Z,0.80
2022-09-14T18:39:17.019Z,0.75
2022-09-14T18:41:44.098Z,0.90
2022-09-14T18:44:10.327Z,0.82
2022-09-14T18:46:37.494Z,0.60
2022-09-14T18:49:03.793Z,0.60
2022-09-14T18:51:30.810Z,0.82
2022-09-14T18:54:03.050Z,0.77
2022-09-14T18:56:29.796Z,0.70
2022-09-14T18:58:56.137Z,0.60
2022-09-14T19:01:22.422Z,0.70
2022-09-14T19:03:48.860Z,0.55
2022-09-14T19:06:16.018Z,0.60
2022-09-14T19:08:42.717Z,0.63
2022-09-14T19:11:10.712Z,0.70
2022-09-14T19:13:37.323Z,0.55
2022-09-14T19:16:11.139Z,0.70
2022-09-14T19:18:38.183Z,0.93
2022-09-14T19:21:06.967Z,0.60
2022-09-14T19:23:33.726Z,0.57
2022-09-14T19:26:04.336Z,0.88
2022-09-14T19:30:56.889Z,0.88
2022-09-14T19:33:23.179Z,0.70
2022-09-14T19:35:49.399Z,0.90
2022-09-14T19:38:15.602Z,0.90
2022-09-14T19:40:50.182Z,0.90
2022-09-14T19:43:16.414Z,0.80
2022-09-14T19:45:42.656Z,0.88
2022-09-14T19:48:08.864Z,0.80
2022-09-14T19:50:35.199Z,1.10
2022-09-14T19:53:04.555Z,1.10
2022-09-14T19:55:31.274Z,0.95
2022-09-14T19:57:57.551Z,0.90
2022-09-14T20:00:23.785Z,1.02
2022-09-14T20:02:50.027Z,0.90
2022-09-14T20:05:16.298Z,1.40
2022-09-14T20:07:42.727Z,1.42
2022-09-14T20:10:09.384Z,1.58
2022-09-14T20:12:35.595Z,1.52
2022-09-14T20:15:01.917Z,1.70
2022-09-14T20:17:28.172Z,1.70
2022-09-14T20:19:54.384Z,1.52
2022-09-14T20:22:20.592Z,1.65
2022-09-14T20:24:46.799Z,1.70
2022-09-14T20:27:14.036Z,1.42
2022-09-14T20:29:40.235Z,1.63
2022-09-14T20:32:06.500Z,1.63
2022-09-14T20:34:34.220Z,1.40
2022-09-14T20:37:00.704Z,1.60
2022-09-14T20:39:27.018Z,1.50
2022-09-14T20:41:53.295Z,1.42
2022-09-14T20:44:22.980Z,1.42
2022-09-14T20:46:49.839Z,1.50
2022-09-14T20:49:17.209Z,1.60
2022-09-14T20:51:43.474Z,1.50
2022-09-14T20:54:11.366Z,1.33
2022-09-14T20:56:37.949Z,1.50
2022-09-14T20:59:05.428Z,1.50
2022-09-14T21:01:32.298Z,1.48
2022-09-14T21:04:09.206Z,1.48
2022-09-14T21:06:36.964Z,1.65
2022-09-14T21:09:04.035Z,1.50
2022-09-14T21:11:31.192Z,1.60
2022-09-14T21:13:57.758Z,1.40
2022-09-14T21:16:28.738Z,1.27
2022-09-14T21:18:56.511Z,1.42
2022-09-14T21:21:22.944Z,1.48
2022-09-14T21:23:50.229Z,1.20
2022-09-14T21:26:17.247Z,1.50
2022-09-14T21:28:43.488Z,1.52
2022-09-14T21:31:11.432Z,1.33
2022-09-14T21:33:38.844Z,1.52
2022-09-14T21:36:15.551Z,1.30
2022-09-14T21:38:41.994Z,1.35
2022-09-14T21:41:09.343Z,1.40
2022-09-14T21:43:39.821Z,1.40
2022-09-14T21:46:06.664Z,1.20
2022-09-14T21:48:33.416Z,1.30
2022-09-14T21:51:04.046Z,1.35
2022-09-14T21:55:56.480Z,1.25
2022-09-14T21:58:22.699Z,1.20
2022-09-14T22:00:54.458Z,1.40
2022-09-14T22:03:20.679Z,1.30
2022-09-14T22:05:56.594Z,1.48
2022-09-14T22:08:23.130Z,1.23
2022-09-14T22:10:49.375Z,1.38
2022-09-14T22:13:16.395Z,1.42
2022-09-14T22:15:42.687Z,1.40
2022-09-14T22:18:08.972Z,1.50
2022-09-14T22:20:35.248Z,1.50
2022-09-14T22:23:01.639Z,1.80
2022-09-14T22:25:28.940Z,1.60
2022-09-14T22:27:55.152Z,1.40
2022-09-14T22:30:21.463Z,1.33
2022-09-14T22:32:47.667Z,1.30
2022-09-14T22:35:13.920Z,1.40
2022-09-14T22:37:40.175Z,1.10
2022-09-14T22:40:06.654Z,1.20
2022-09-14T22:42:32.979Z,1.10
2022-09-14T22:44:59.228Z,1.48
2022-09-14T22:47:25.444Z,1.10
2022-09-14T22:49:52.643Z,1.20
2022-09-14T22:52:18.835Z,1.23
2022-09-14T22:54:45.191Z,1.48
2022-09-14T22:57:11.483Z,1.42
2022-09-14T22:59:38.789Z,1.20
2022-09-14T23:02:05.064Z,1.25
2022-09-14T23:04:31.716Z,1.52
2022-09-14T23:06:59.845Z,1.40
2022-09-14T23:09:26.334Z,1.30
2022-09-14T23:11:52.895Z,1.42
2022-09-14T23:14:19.142Z,1.30
2022-09-14T23:16:45.737Z,1.30
2022-09-14T23:19:14.383Z,1.38
2022-09-14T23:21:40.607Z,1.50
2022-09-14T23:24:07.149Z,1.70
2022-09-14T23:26:34.130Z,1.63
2022-09-14T23:29:05.506Z,1.40
2022-09-14T23:31:32.379Z,1.63
2022-09-14T23:33:59.627Z,1.90
2022-09-14T23:36:26.034Z,1.92
2022-09-14T23:38:52.739Z,1.60
2022-09-14T23:41:19.648Z,1.63
2022-09-14T23:43:46.312Z,1.55
2022-09-14T23:46:12.940Z,2.05
2022-09-14T23:48:39.553Z,2.00
2022-09-14T23:51:06.428Z,2.63
2022-09-14T23:53:32.828Z,2.40
2022-09-14T23:55:59.066Z,2.08
2022-09-14T23:58:25.387Z,2.60
